createdAt,value
2019-04-20T00:00:50.621Z,68.50
2019-04-20T00:03:18.073Z,67.60
2019-04-20T00:05:48.935Z,66.60
2019-04-20T00:08:25.134Z,67.70
2019-04-20T00:11:02.613Z,66.60
2019-04-20T00:13:35.588Z,66.40
2019-04-20T00:15:59.930Z,66.10
2019-04-20T00:18:38.488Z,66.20
2019-04-20T00:21:11.002Z,66.50
2019-04-20T00:23:43.064Z,66.60
2019-04-20T00:26:23.238Z,65.90
2019-04-20T00:29:07.518Z,65.10
2019-04-20T00:31:39.311Z,64.20
2019-04-20T00:34:02.684Z,63.70
2019-04-20T00:36:26.285Z,63.10
2019-04-20T00:39:03.722Z,61.80
2019-04-20T00:41:34.265Z,61.60
2019-04-20T00:44:12.232Z,61.60
2019-04-20T00:46:52.749Z,61.20
2019-04-20T00:49:25.378Z,60.80
2019-04-20T00:52:15.252Z,60.70
2019-04-20T00:54:18.082Z,60.00
2019-04-20T00:56:49.878Z,59.70
2019-04-20T00:59:35.285Z,59.70
2019-04-20T01:02:12.665Z,59.20
2019-04-20T01:04:47.640Z,58.40
2019-04-20T01:07:17.612Z,57.80
2019-04-20T01:09:37.066Z,56.40
2019-04-20T01:12:14.802Z,56.50
2019-04-20T01:14:48.508Z,54.90
2019-04-20T01:17:15.040Z,55.10
2019-04-20T01:19:45.325Z,54.30
2019-04-20T01:22:20.583Z,51.60
2019-04-20T01:24:51.596Z,51.80
2019-04-20T01:27:34.959Z,50.40
2019-04-20T01:30:08.967Z,49.40
2019-04-20T01:32:49.235Z,46.70
2019-04-20T01:35:18.140Z,47.80
2019-04-20T01:37:52.928Z,46.90
2019-04-20T01:40:10.844Z,47.00
2019-04-20T01:42:42.480Z,45.00
2019-04-20T01:45:21.447Z,47.60
2019-04-20T01:47:52.334Z,47.10
2019-04-20T01:50:24.484Z,45.10
2019-04-20T01:53:02.031Z,45.40
2019-04-20T01:55:42.456Z,43.50
2019-04-20T01:58:17.833Z,43.60
2019-04-20T02:00:38.260Z,44.00
2019-04-20T02:03:11.437Z,43.40
2019-04-20T02:05:50.385Z,42.50
2019-04-20T02:08:19.619Z,42.50
2019-04-20T02:10:53.720Z,43.10
2019-04-20T02:13:21.602Z,41.90
2019-04-20T02:15:57.843Z,41.10
2019-04-20T02:18:35.888Z,41.30
2019-04-20T02:21:15.108Z,41.30
2019-04-20T02:23:40.874Z,38.50
2019-04-20T02:26:05.245Z,39.30
2019-04-20T02:29:00.894Z,39.00
2019-04-20T02:34:15.385Z,36.10
2019-04-20T02:39:37.560Z,39.20
2019-04-20T02:42:07.924Z,39.00
2019-04-20T02:47:17.345Z,37.40
2019-04-20T02:49:42.049Z,41.30
2019-04-20T02:54:45.123Z,42.10
2019-04-20T02:57:27.250Z,39.00
2019-04-20T03:02:13.333Z,36.70
2019-04-20T03:04:38.226Z,35.70
2019-04-20T03:07:14.912Z,38.00
2019-04-20T03:09:55.469Z,35.40
2019-04-20T03:12:33.367Z,36.70
2019-04-20T03:14:53.978Z,35.60
2019-04-20T03:17:35.367Z,36.10
2019-04-20T03:19:58.266Z,38.20
2019-04-20T03:22:59.915Z,36.80
2019-04-20T03:25:13.529Z,38.70
2019-04-20T03:27:41.033Z,37.70
2019-04-20T03:31:05.629Z,37.20
2019-04-20T03:35:52.869Z,37.20
2019-04-20T03:38:07.525Z,38.80
2019-04-20T03:40:29.634Z,37.80
2019-04-20T03:42:48.664Z,39.10
2019-04-20T03:45:23.079Z,41.60
2019-04-20T03:48:03.194Z,40.80
2019-04-20T03:50:49.208Z,41.10
2019-04-20T03:53:22.656Z,43.10
2019-04-20T03:55:50.089Z,41.80
2019-04-20T03:58:29.176Z,42.00
2019-04-20T04:00:59.810Z,43.40
2019-04-20T04:03:47.206Z,43.90
2019-04-20T04:06:08.584Z,42.70
2019-04-20T04:08:34.989Z,42.60
2019-04-20T04:11:15.991Z,42.60
2019-04-20T04:13:31.843Z,41.20
2019-04-20T04:16:07.922Z,41.90
2019-04-20T04:18:41.042Z,42.30
2019-04-20T04:21:16.140Z,41.30
2019-04-20T04:23:59.983Z,40.30
2019-04-20T04:26:32.318Z,39.60
2019-04-20T04:29:16.636Z,39.80
2019-04-20T04:31:36.252Z,42.70
2019-04-20T04:34:07.387Z,40.40
2019-04-20T04:36:52.308Z,40.40
2019-04-20T04:39:21.175Z,39.80
2019-04-20T04:42:01.796Z,39.40
2019-04-20T04:44:19.271Z,39.40
2019-04-20T04:46:43.530Z,39.10
2019-04-20T04:49:23.679Z,40.40
2019-04-20T04:51:52.351Z,40.70
2019-04-20T04:54:28.927Z,40.60
2019-04-20T04:56:50.476Z,41.30
2019-04-20T04:59:21.771Z,38.50
2019-04-20T05:01:56.554Z,38.70
2019-04-20T05:04:49.626Z,39.10
2019-04-20T05:07:11.236Z,39.80
2019-04-20T05:09:33.867Z,40.00
2019-04-20T05:12:11.871Z,40.50
2019-04-20T05:14:46.037Z,39.80
2019-04-20T05:17:32.896Z,36.70
2019-04-20T05:20:02.533Z,38.10
2019-04-20T05:22:40.123Z,38.90
2019-04-20T05:25:10.666Z,38.70
2019-04-20T05:27:47.930Z,38.80
2019-04-20T05:29:57.041Z,40.80
2019-04-20T05:32:37.885Z,40.40
2019-04-20T05:35:21.486Z,37.80
2019-04-20T05:38:02.654Z,37.80
2019-04-20T05:40:30.718Z,38.20
2019-04-20T05:43:03.141Z,36.40
2019-04-20T05:45:28.831Z,37.70
2019-04-20T05:48:02.588Z,38.00
2019-04-20T05:50:37.716Z,36.90
2019-04-20T05:53:14.468Z,36.90
2019-04-20T05:55:43.064Z,35.00
2019-04-20T05:58:23.350Z,37.20
2019-04-20T06:00:57.128Z,33.30
2019-04-20T06:03:20.245Z,34.40
2019-04-20T06:06:06.178Z,31.70
2019-04-20T06:08:43.551Z,37.80
2019-04-20T06:11:05.674Z,38.80
2019-04-20T06:13:32.644Z,39.10
2019-04-20T06:16:07.411Z,38.60
2019-04-20T06:18:40.186Z,37.70
2019-04-20T06:21:24.982Z,38.40
2019-04-20T06:23:56.700Z,38.10
2019-04-20T06:28:55.273Z,38.80
2019-04-20T06:31:39.797Z,36.80
2019-04-20T06:36:47.519Z,38.90
2019-04-20T06:39:20.272Z,39.20
2019-04-20T06:42:53.890Z,38.30
2019-04-20T06:44:30.321Z,38.00
2019-04-20T06:49:33.298Z,36.00
2019-04-20T06:52:04.622Z,37.80
2019-04-20T06:54:35.925Z,35.70
2019-04-20T06:57:10.155Z,34.80
2019-04-20T06:59:44.227Z,35.30
2019-04-20T07:04:52.117Z,35.10
2019-04-20T07:10:02.457Z,34.30
2019-04-20T07:12:23.034Z,31.70
2019-04-20T07:14:46.966Z,32.30
2019-04-20T07:17:40.704Z,35.10
2019-04-20T07:20:05.629Z,32.70
2019-04-20T07:22:37.551Z,34.00
2019-04-20T07:25:13.991Z,35.60
2019-04-20T07:27:49.000Z,36.60
2019-04-20T07:30:17.740Z,36.50
2019-04-20T07:35:26.305Z,36.60
2019-04-20T07:40:35.629Z,36.90
2019-04-20T07:43:14.703Z,34.90
2019-04-20T07:45:33.188Z,35.30
2019-04-20T07:48:15.041Z,35.60
2019-04-20T07:50:37.444Z,35.90
2019-04-20T07:53:12.290Z,33.70
2019-04-20T07:55:56.308Z,35.80
2019-04-20T07:58:13.421Z,35.70
2019-04-20T08:01:04.291Z,36.20
2019-04-20T08:03:33.649Z,35.40
2019-04-20T08:05:56.851Z,34.70
2019-04-20T08:08:35.013Z,33.80
2019-04-20T08:11:10.215Z,34.30
2019-04-20T08:13:46.780Z,35.20
2019-04-20T08:16:16.529Z,34.10
2019-04-20T08:18:51.410Z,35.80
2019-04-20T08:21:22.797Z,36.50
2019-04-20T08:23:54.043Z,36.20
2019-04-20T08:26:14.140Z,36.70
2019-04-20T08:28:51.034Z,35.40
2019-04-20T08:31:29.775Z,33.00
2019-04-20T08:34:20.191Z,35.10
2019-04-20T08:36:47.835Z,33.90
2019-04-20T08:41:50.388Z,34.50
2019-04-20T08:44:42.631Z,34.20
2019-04-20T08:47:03.867Z,33.00
2019-04-20T08:49:29.565Z,32.90
2019-04-20T08:52:11.359Z,35.10
2019-04-20T08:54:31.001Z,35.20
2019-04-20T08:56:51.521Z,35.20
2019-04-20T08:59:18.900Z,35.20
2019-04-20T09:01:51.094Z,33.90
2019-04-20T09:04:33.766Z,35.20
2019-04-20T09:07:05.612Z,35.40
2019-04-20T09:09:49.531Z,34.30
2019-04-20T09:12:14.718Z,33.70
2019-04-20T09:14:36.787Z,34.20
2019-04-20T09:17:12.297Z,33.40
2019-04-20T09:19:52.815Z,33.10
2019-04-20T09:22:28.299Z,34.80
2019-04-20T09:25:16.130Z,35.50
2019-04-20T09:27:29.461Z,35.70
2019-04-20T09:30:16.043Z,36.30
2019-04-20T09:32:39.539Z,36.30
2019-04-20T09:35:20.655Z,36.80
2019-04-20T09:37:55.331Z,37.00
2019-04-20T09:40:29.310Z,36.80
2019-04-20T09:42:42.667Z,37.10
2019-04-20T09:45:23.454Z,36.90
2019-04-20T09:47:52.876Z,37.00
2019-04-20T09:50:38.694Z,36.80
2019-04-20T09:53:10.099Z,37.40
2019-04-20T09:55:38.213Z,37.40
2019-04-20T09:58:14.825Z,36.90
2019-04-20T10:00:53.035Z,37.30
2019-04-20T10:03:08.694Z,36.50
2019-04-20T10:05:41.215Z,37.20
2019-04-20T10:08:13.700Z,35.60
2019-04-20T10:10:47.238Z,36.10
2019-04-20T10:13:19.415Z,36.50
2019-04-20T10:15:51.100Z,36.60
2019-04-20T10:18:21.876Z,36.90
2019-04-20T10:20:53.888Z,35.60
2019-04-20T10:23:26.779Z,36.60
2019-04-20T10:25:58.933Z,36.60
2019-04-20T10:28:31.709Z,36.70
2019-04-20T10:31:04.257Z,36.80
2019-04-20T10:33:37.415Z,36.70
2019-04-20T10:36:11.979Z,36.50
2019-04-20T10:38:44.370Z,36.70
2019-04-20T10:41:29.734Z,36.60
2019-04-20T10:43:48.991Z,36.50
2019-04-20T10:46:20.826Z,36.50
2019-04-20T10:48:54.215Z,36.50
2019-04-20T10:51:25.916Z,36.60
2019-04-20T10:53:58.318Z,36.90
2019-04-20T10:56:29.604Z,36.90
2019-04-20T10:59:01.525Z,37.00
2019-04-20T11:01:33.665Z,37.10
2019-04-20T11:04:05.169Z,37.20
2019-04-20T11:06:38.567Z,37.40
2019-04-20T11:09:10.930Z,37.50
2019-04-20T11:11:42.212Z,37.50
2019-04-20T11:14:21.153Z,37.60
2019-04-20T11:16:46.670Z,37.50
2019-04-20T11:19:18.988Z,37.70
2019-04-20T11:21:50.661Z,37.80
2019-04-20T11:24:20.869Z,38.00
2019-04-20T11:26:54.051Z,37.90
2019-04-20T11:29:26.310Z,38.40
2019-04-20T11:31:59.129Z,38.80
2019-04-20T11:34:33.988Z,39.00
2019-04-20T11:37:04.388Z,39.20
2019-04-20T11:39:37.019Z,39.40
2019-04-20T11:42:09.843Z,39.50
2019-04-20T11:44:42.428Z,39.80
2019-04-20T11:47:14.736Z,40.20
2019-04-20T11:49:46.540Z,40.30
2019-04-20T11:52:18.364Z,40.50
2019-04-20T11:54:50.420Z,40.70
2019-04-20T11:57:22.216Z,40.70
2019-04-20T11:59:53.329Z,40.80
2019-04-20T12:02:32.168Z,40.90
2019-04-20T12:05:16.706Z,41.10
2019-04-20T12:07:37.821Z,41.20
2019-04-20T12:10:15.170Z,41.40
2019-04-20T12:12:47.305Z,41.70
2019-04-20T12:15:16.816Z,41.80
2019-04-20T12:17:49.515Z,42.00
2019-04-20T12:20:22.741Z,42.20
2019-04-20T12:22:54.643Z,42.30
2019-04-20T12:25:25.910Z,42.40
2019-04-20T12:27:58.998Z,43.40
2019-04-20T12:30:30.000Z,42.90
2019-04-20T12:33:01.905Z,42.70
2019-04-20T12:35:32.183Z,43.30
2019-04-20T12:38:03.459Z,43.20
2019-04-20T12:40:35.440Z,43.40
2019-04-20T12:43:07.285Z,43.50
2019-04-20T12:45:39.898Z,44.00
2019-04-20T12:48:11.708Z,44.60
2019-04-20T12:50:43.754Z,44.50
2019-04-20T12:53:16.898Z,44.70
2019-04-20T12:55:48.456Z,44.90
2019-04-20T12:58:20.869Z,44.90
2019-04-20T13:00:54.495Z,45.10
2019-04-20T13:03:25.812Z,45.00
2019-04-20T13:05:58.168Z,45.00
2019-04-20T13:08:37.979Z,45.40
2019-04-20T13:11:06.528Z,45.70
2019-04-20T13:13:40.710Z,46.00
2019-04-20T13:16:14.339Z,46.10
2019-04-20T13:18:47.662Z,46.20
2019-04-20T13:21:19.379Z,46.30
2019-04-20T13:23:53.195Z,46.70
2019-04-20T13:26:25.191Z,47.00
2019-04-20T13:28:56.832Z,47.00
2019-04-20T13:31:29.529Z,48.80
2019-04-20T13:34:01.474Z,47.60
2019-04-20T13:36:34.450Z,47.40
2019-04-20T13:39:08.226Z,47.50
2019-04-20T13:41:40.236Z,47.70
2019-04-20T13:44:11.558Z,47.70
2019-04-20T13:46:43.390Z,49.40
2019-04-20T13:49:15.239Z,48.40
2019-04-20T13:51:46.544Z,48.30
2019-04-20T13:54:22.977Z,49.20
2019-04-20T13:56:52.989Z,48.70
2019-04-20T13:59:27.961Z,51.10
2019-04-20T14:02:01.312Z,50.20
2019-04-20T14:04:36.875Z,49.30
2019-04-20T14:07:09.367Z,49.10
2019-04-20T14:09:41.875Z,48.40
2019-04-20T14:12:22.198Z,48.60
2019-04-20T14:14:46.925Z,48.70
2019-04-20T14:17:19.170Z,49.10
2019-04-20T14:19:50.534Z,48.20
2019-04-20T14:22:22.840Z,49.10
2019-04-20T14:24:55.167Z,48.20
2019-04-20T14:27:26.692Z,48.20
2019-04-20T14:29:59.134Z,48.70
2019-04-20T14:32:30.997Z,48.40
2019-04-20T14:35:03.102Z,48.30
2019-04-20T14:37:35.894Z,48.20
2019-04-20T14:40:10.314Z,48.80
2019-04-20T14:42:46.347Z,48.60
2019-04-20T14:45:18.475Z,49.20
2019-04-20T14:47:49.930Z,49.80
2019-04-20T14:50:23.325Z,49.50
2019-04-20T14:52:55.644Z,49.00
2019-04-20T14:55:27.308Z,48.70
2019-04-20T14:58:01.488Z,49.50
2019-04-20T15:00:37.371Z,48.80
2019-04-20T15:03:10.137Z,49.50
2019-04-20T15:05:43.794Z,48.80
2019-04-20T15:08:16.434Z,49.10
2019-04-20T15:10:49.033Z,48.80
2019-04-20T15:13:20.652Z,49.20
2019-04-20T15:15:52.707Z,49.40
2019-04-20T15:18:27.194Z,49.30
2019-04-20T15:20:59.800Z,49.90
2019-04-20T15:23:31.378Z,49.40
2019-04-20T15:26:02.910Z,49.70
2019-04-20T15:28:34.654Z,50.10
2019-04-20T15:31:06.475Z,49.70
2019-04-20T15:33:39.049Z,49.20
2019-04-20T15:36:10.794Z,49.20
2019-04-20T15:38:42.985Z,49.40
2019-04-20T15:41:15.630Z,49.00
2019-04-20T15:43:48.994Z,49.10
2019-04-20T15:46:21.390Z,49.00
2019-04-20T15:48:53.342Z,48.60
2019-04-20T15:51:23.707Z,48.60
2019-04-20T15:53:55.626Z,48.70
2019-04-20T15:56:26.868Z,48.50
2019-04-20T15:58:58.733Z,48.80
2019-04-20T16:01:30.401Z,48.40
2019-04-20T16:04:03.627Z,48.50
2019-04-20T16:06:35.148Z,48.30
2019-04-20T16:09:08.329Z,48.10
2019-04-20T16:11:39.434Z,48.10
2019-04-20T16:14:11.022Z,48.00
2019-04-20T16:16:42.729Z,48.30
2019-04-20T16:19:28.186Z,48.20
2019-04-20T16:21:47.874Z,48.60
2019-04-20T16:24:22.249Z,48.40
2019-04-20T16:26:55.813Z,48.40
2019-04-20T16:29:27.097Z,48.50
2019-04-20T16:31:58.793Z,49.40
2019-04-20T16:34:31.663Z,48.70
2019-04-20T16:37:04.215Z,48.80
2019-04-20T16:39:36.584Z,49.00
2019-04-20T16:42:09.486Z,49.00
2019-04-20T16:44:41.174Z,49.00
2019-04-20T16:47:12.390Z,49.40
2019-04-20T16:49:43.528Z,49.50
2019-04-20T16:52:15.283Z,49.70
2019-04-20T16:54:47.887Z,49.60
2019-04-20T16:57:19.807Z,49.20
2019-04-20T16:59:54.431Z,49.10
2019-04-20T17:02:24.511Z,49.30
2019-04-20T17:04:56.586Z,49.10
2019-04-20T17:07:29.038Z,49.70
2019-04-20T17:10:02.209Z,50.90
2019-04-20T17:12:33.622Z,50.10
2019-04-20T17:15:07.470Z,49.80
2019-04-20T17:17:39.941Z,50.00
2019-04-20T17:20:13.745Z,50.00
2019-04-20T17:22:46.297Z,49.90
2019-04-20T17:25:19.648Z,50.60
2019-04-20T17:27:53.074Z,50.20
2019-04-20T17:30:27.477Z,50.20
2019-04-20T17:33:00.472Z,50.30
2019-04-20T17:35:43.489Z,50.40
2019-04-20T17:38:06.778Z,50.20
2019-04-20T17:40:59.152Z,50.30
2019-04-20T17:43:20.124Z,50.30
2019-04-20T17:45:57.642Z,49.80
2019-04-20T17:48:27.612Z,50.20
2019-04-20T17:51:12.276Z,50.80
2019-04-20T17:53:37.661Z,50.70
2019-04-20T17:55:57.279Z,50.30
2019-04-20T17:58:32.686Z,50.80
2019-04-20T18:01:03.608Z,50.70
2019-04-20T18:04:11.161Z,50.80
2019-04-20T18:06:25.412Z,51.40
2019-04-20T18:08:59.893Z,51.10
2019-04-20T18:11:21.287Z,51.10
2019-04-20T18:13:58.166Z,51.40
2019-04-20T18:16:46.898Z,51.70
2019-04-20T18:19:05.666Z,52.10
2019-04-20T18:21:32.843Z,52.20
2019-04-20T18:24:13.732Z,52.40
2019-04-20T18:26:51.948Z,52.60
2019-04-20T18:29:35.422Z,52.30
2019-04-20T18:31:44.986Z,52.30
2019-04-20T18:34:22.708Z,52.80
2019-04-20T18:36:53.344Z,53.00
2019-04-20T18:39:37.417Z,53.00
2019-04-20T18:42:11.057Z,52.70
2019-04-20T18:44:55.802Z,52.90
2019-04-20T18:47:23.604Z,53.40
2019-04-20T18:49:49.143Z,52.70
2019-04-20T18:52:09.696Z,53.40
2019-04-20T18:54:44.263Z,53.60
2019-04-20T18:57:19.584Z,54.10
2019-04-20T18:59:52.157Z,53.40
2019-04-20T19:02:26.543Z,53.50
2019-04-20T19:04:53.341Z,53.30
2019-04-20T19:07:25.717Z,53.30
2019-04-20T19:10:05.466Z,53.70
2019-04-20T19:12:42.434Z,53.10
2019-04-20T19:15:29.189Z,53.50
2019-04-20T19:17:53.784Z,53.10
2019-04-20T19:20:15.985Z,53.60
2019-04-20T19:22:48.217Z,53.70
2019-04-20T19:25:26.111Z,54.00
2019-04-20T19:27:55.849Z,54.70
2019-04-20T19:30:35.455Z,54.30
2019-04-20T19:33:14.913Z,54.60
2019-04-20T19:35:42.963Z,54.90
2019-04-20T19:38:10.290Z,54.50
2019-04-20T19:40:47.814Z,54.40
2019-04-20T19:43:15.958Z,54.20
2019-04-20T19:46:24.134Z,54.60
2019-04-20T19:48:28.140Z,54.60
2019-04-20T19:51:25.511Z,54.50
2019-04-20T19:53:36.588Z,54.70
2019-04-20T19:56:03.721Z,54.60
2019-04-20T19:58:34.425Z,55.00
2019-04-20T20:00:58.173Z,55.40
2019-04-20T20:03:29.925Z,55.10
2019-04-20T20:06:01.523Z,55.10
2019-04-20T20:08:35.807Z,55.50
2019-04-20T20:11:08.420Z,55.60
2019-04-20T20:13:43.936Z,55.60
2019-04-20T20:16:16.931Z,55.60
2019-04-20T20:18:56.179Z,55.90
2019-04-20T20:21:27.038Z,56.20
2019-04-20T20:23:50.060Z,56.40
2019-04-20T20:26:30.494Z,56.70
2019-04-20T20:29:07.250Z,56.60
2019-04-20T20:31:43.338Z,56.90
2019-04-20T20:34:10.655Z,58.10
2019-04-20T20:36:38.883Z,57.60
2019-04-20T20:39:11.088Z,59.10
2019-04-20T20:41:49.154Z,58.50
2019-04-20T20:44:15.671Z,58.10
2019-04-20T20:46:53.418Z,57.60
2019-04-20T20:49:27.675Z,58.40
2019-04-20T20:52:09.728Z,58.10
2019-04-20T20:54:34.650Z,58.30
2019-04-20T20:56:59.494Z,58.90
2019-04-20T20:59:34.809Z,58.50
2019-04-20T21:02:06.499Z,58.80
2019-04-20T21:04:29.995Z,58.60
2019-04-20T21:07:02.733Z,58.80
2019-04-20T21:09:35.391Z,58.90
2019-04-20T21:12:12.664Z,59.00
2019-04-20T21:14:42.108Z,59.00
2019-04-20T21:17:17.835Z,59.20
2019-04-20T21:20:03.517Z,59.20
2019-04-20T21:22:33.828Z,59.60
2019-04-20T21:24:53.080Z,60.10
2019-04-20T21:27:25.835Z,60.20
2019-04-20T21:30:00.023Z,60.10
2019-04-20T21:32:33.596Z,60.40
2019-04-20T21:35:06.950Z,60.60
2019-04-20T21:37:37.024Z,60.70
2019-04-20T21:40:22.772Z,60.90
2019-04-20T21:42:49.962Z,61.00
2019-04-20T21:45:22.809Z,61.10
2019-04-20T21:47:48.343Z,61.30
2019-04-20T21:50:34.407Z,61.20
2019-04-20T21:52:58.566Z,61.90
2019-04-20T21:55:25.934Z,61.70
2019-04-20T21:58:00.467Z,61.90
2019-04-20T22:00:35.075Z,62.20
2019-04-20T22:03:07.778Z,62.30
2019-04-20T22:05:38.157Z,62.20
2019-04-20T22:08:14.045Z,62.20
2019-04-20T22:10:42.882Z,62.30
2019-04-20T22:13:19.673Z,62.00
2019-04-20T22:15:55.744Z,62.20
2019-04-20T22:18:23.128Z,62.40
2019-04-20T22:21:03.572Z,62.40
2019-04-20T22:23:43.362Z,62.30
2019-04-20T22:26:10.226Z,62.70
2019-04-20T22:28:29.947Z,64.60
2019-04-20T22:31:02.198Z,64.00
2019-04-20T22:33:37.122Z,64.60
2019-04-20T22:36:09.432Z,64.80
2019-04-20T22:38:47.520Z,63.70
2019-04-20T22:41:18.041Z,63.50
2019-04-20T22:43:48.296Z,63.10
2019-04-20T22:46:26.817Z,62.60
2019-04-20T22:49:07.119Z,62.50
2019-04-20T22:51:39.867Z,62.20
2019-04-20T22:54:17.224Z,62.50
2019-04-20T22:56:43.787Z,62.70
2019-04-20T22:59:09.292Z,63.10
2019-04-20T23:01:40.767Z,63.70
2019-04-20T23:04:08.759Z,64.50
2019-04-20T23:06:45.830Z,63.50
2019-04-20T23:09:14.966Z,63.30
2019-04-20T23:11:47.222Z,63.20
2019-04-20T23:14:18.447Z,62.70
2019-04-20T23:16:53.509Z,62.50
2019-04-20T23:19:34.346Z,62.10
2019-04-20T23:21:59.657Z,62.80
2019-04-20T23:24:29.142Z,62.00
2019-04-20T23:27:04.455Z,61.70
2019-04-20T23:29:37.947Z,62.20
2019-04-20T23:32:09.819Z,64.20
2019-04-20T23:34:40.818Z,63.20
2019-04-20T23:37:19.569Z,65.20
2019-04-20T23:39:47.277Z,64.50
2019-04-20T23:42:19.835Z,63.10
2019-04-20T23:44:57.663Z,62.60
2019-04-20T23:47:27.881Z,62.20
2019-04-20T23:50:17.860Z,61.80
2019-04-20T23:52:53.406Z,62.40
2019-04-20T23:55:10.274Z,61.10
2019-04-20T23:57:41.874Z,60.70
